sensor_id;sensor_type;location;lat;lon;timestamp;temperature;humidity
5850;DHT22;2951;47.712;9.400;2023-03-04T00:02:00;1.70;99.90
5850;DHT22;2951;47.712;9.400;2023-03-04T00:04:27;1.70;99.90
5850;DHT22;2951;47.712;9.400;2023-03-04T00:06:53;1.60;99.90
5850;DHT22;2951;47.712;9.400;2023-03-04T00:09:20;1.50;99.90
5850;DHT22;2951;47.712;9.400;2023-03-04T00:11:47;1.40;99.90
5850;DHT22;2951;47.712;9.400;2023-03-04T00:14:13;1.40;99.90
5850;DHT22;2951;47.712;9.400;2023-03-04T00:16:40;1.40;99.90
5850;DHT22;2951;47.712;9.400;2023-03-04T00:19:08;1.50;99.90
5850;DHT22;2951;47.712;9.400;2023-03-04T00:21:35;1.50;99.90
5850;DHT22;2951;47.712;9.400;2023-03-04T00:24:01;1.50;99.90
5850;DHT22;2951;47.712;9.400;2023-03-04T00:26:28;1.40;99.90
5850;DHT22;2951;47.712;9.400;2023-03-04T00:28:55;1.30;99.90
5850;DHT22;2951;47.712;9.400;2023-03-04T00:31:22;1.30;99.90
5850;DHT22;2951;47.712;9.400;2023-03-04T00:33:48;1.30;99.90
5850;DHT22;2951;47.712;9.400;2023-03-04T00:36:15;1.20;99.90
5850;DHT22;2951;47.712;9.400;2023-03-04T00:38:41;1.20;99.90
5850;DHT22;2951;47.712;9.400;2023-03-04T00:41:08;1.30;99.90
5850;DHT22;2951;47.712;9.400;2023-03-04T00:43:35;1.20;99.90
5850;DHT22;2951;47.712;9.400;2023-03-04T00:46:01;1.20;99.90
5850;DHT22;2951;47.712;9.400;2023-03-04T00:48:28;1.20;99.90
5850;DHT22;2951;47.712;9.400;2023-03-04T00:50:55;1.20;99.90
5850;DHT22;2951;47.712;9.400;2023-03-04T00:53:22;1.10;99.90
5850;DHT22;2951;47.712;9.400;2023-03-04T00:55:49;1.00;99.90
5850;DHT22;2951;47.712;9.400;2023-03-04T00:58:16;1.00;99.90
5850;DHT22;2951;47.712;9.400;2023-03-04T01:00:42;0.90;99.90
5850;DHT22;2951;47.712;9.400;2023-03-04T01:03:09;0.90;99.90
5850;DHT22;2951;47.712;9.400;2023-03-04T01:05:36;0.90;99.90
5850;DHT22;2951;47.712;9.400;2023-03-04T01:08:03;0.90;99.90
5850;DHT22;2951;47.712;9.400;2023-03-04T01:10:29;0.80;99.90
5850;DHT22;2951;47.712;9.400;2023-03-04T01:12:56;0.80;99.90
5850;DHT22;2951;47.712;9.400;2023-03-04T01:15:23;0.70;99.90
5850;DHT22;2951;47.712;9.400;2023-03-04T01:17:50;0.80;99.90
5850;DHT22;2951;47.712;9.400;2023-03-04T01:20:16;0.70;99.90
5850;DHT22;2951;47.712;9.400;2023-03-04T01:22:43;0.70;99.90
5850;DHT22;2951;47.712;9.400;2023-03-04T01:25:10;0.70;99.90
5850;DHT22;2951;47.712;9.400;2023-03-04T01:27:36;0.60;99.90
5850;DHT22;2951;47.712;9.400;2023-03-04T01:30:03;0.70;99.90
5850;DHT22;2951;47.712;9.400;2023-03-04T01:32:30;0.70;99.90
5850;DHT22;2951;47.712;9.400;2023-03-04T01:34:57;0.70;99.90
5850;DHT22;2951;47.712;9.400;2023-03-04T01:37:24;0.80;99.90
5850;DHT22;2951;47.712;9.400;2023-03-04T01:39:51;0.70;99.90
5850;DHT22;2951;47.712;9.400;2023-03-04T01:42:18;0.70;99.90
5850;DHT22;2951;47.712;9.400;2023-03-04T01:44:46;0.70;99.90
5850;DHT22;2951;47.712;9.400;2023-03-04T01:47:13;0.70;99.90
5850;DHT22;2951;47.712;9.400;2023-03-04T01:49:40;0.60;99.90
5850;DHT22;2951;47.712;9.400;2023-03-04T01:52:12;0.60;99.90
5850;DHT22;2951;47.712;9.400;2023-03-04T01:54:39;0.60;99.90
5850;DHT22;2951;47.712;9.400;2023-03-04T01:57:22;0.60;99.90
5850;DHT22;2951;47.712;9.400;2023-03-04T02:00:13;0.60;99.90
5850;DHT22;2951;47.712;9.400;2023-03-04T02:02:38;0.50;99.90
5850;DHT22;2951;47.712;9.400;2023-03-04T02:05:05;0.50;99.90
5850;DHT22;2951;47.712;9.400;2023-03-04T02:07:31;0.50;99.90
5850;DHT22;2951;47.712;9.400;2023-03-04T02:09:58;0.50;99.90
5850;DHT22;2951;47.712;9.400;2023-03-04T02:12:25;0.40;99.90
5850;DHT22;2951;47.712;9.400;2023-03-04T02:14:51;0.40;99.90
5850;DHT22;2951;47.712;9.400;2023-03-04T02:17:23;0.40;99.90
5850;DHT22;2951;47.712;9.400;2023-03-04T02:19:51;0.40;99.90
5850;DHT22;2951;47.712;9.400;2023-03-04T02:22:20;0.40;99.90
5850;DHT22;2951;47.712;9.400;2023-03-04T02:24:59;0.40;99.90
5850;DHT22;2951;47.712;9.400;2023-03-04T02:27:27;0.30;99.90
5850;DHT22;2951;47.712;9.400;2023-03-04T02:29:53;0.20;99.90
5850;DHT22;2951;47.712;9.400;2023-03-04T02:32:20;0.00;99.90
5850;DHT22;2951;47.712;9.400;2023-03-04T02:34:48;0.00;99.90
5850;DHT22;2951;47.712;9.400;2023-03-04T02:37:15;0.00;99.90
5850;DHT22;2951;47.712;9.400;2023-03-04T02:39:43;0.00;99.90
5850;DHT22;2951;47.712;9.400;2023-03-04T02:42:10;0.00;99.90
5850;DHT22;2951;47.712;9.400;2023-03-04T02:44:38;0.10;99.90
5850;DHT22;2951;47.712;9.400;2023-03-04T02:47:06;0.10;99.90
5850;DHT22;2951;47.712;9.400;2023-03-04T02:49:34;0.10;99.90
5850;DHT22;2951;47.712;9.400;2023-03-04T02:52:25;0.10;99.90
5850;DHT22;2951;47.712;9.400;2023-03-04T02:54:48;0.10;99.90
5850;DHT22;2951;47.712;9.400;2023-03-04T02:57:15;0.10;99.90
5850;DHT22;2951;47.712;9.400;2023-03-04T02:59:41;0.10;99.90
5850;DHT22;2951;47.712;9.400;2023-03-04T03:02:08;0.10;99.90
5850;DHT22;2951;47.712;9.400;2023-03-04T03:04:35;0.00;99.90
5850;DHT22;2951;47.712;9.400;2023-03-04T03:07:02;0.00;99.90
5850;DHT22;2951;47.712;9.400;2023-03-04T03:09:29;0.00;99.90
5850;DHT22;2951;47.712;9.400;2023-03-04T03:11:56;0.00;99.90
5850;DHT22;2951;47.712;9.400;2023-03-04T03:14:22;0.00;99.90
5850;DHT22;2951;47.712;9.400;2023-03-04T03:16:49;-0.10;99.90
5850;DHT22;2951;47.712;9.400;2023-03-04T03:19:15;-0.10;99.90
5850;DHT22;2951;47.712;9.400;2023-03-04T03:21:42;-0.10;99.90
5850;DHT22;2951;47.712;9.400;2023-03-04T03:24:08;-0.10;99.90
5850;DHT22;2951;47.712;9.400;2023-03-04T03:26:35;-0.10;99.90
5850;DHT22;2951;47.712;9.400;2023-03-04T03:29:02;-0.40;99.90
5850;DHT22;2951;47.712;9.400;2023-03-04T03:31:28;-0.50;99.90
5850;DHT22;2951;47.712;9.400;2023-03-04T03:33:55;-0.60;99.90
5850;DHT22;2951;47.712;9.400;2023-03-04T03:36:22;-0.50;99.90
5850;DHT22;2951;47.712;9.400;2023-03-04T03:38:48;-0.50;99.90
5850;DHT22;2951;47.712;9.400;2023-03-04T03:41:15;-0.50;99.90
5850;DHT22;2951;47.712;9.400;2023-03-04T03:43:43;-0.40;99.90
5850;DHT22;2951;47.712;9.400;2023-03-04T03:46:10;-0.50;99.90
5850;DHT22;2951;47.712;9.400;2023-03-04T03:48:37;-0.50;99.90
5850;DHT22;2951;47.712;9.400;2023-03-04T03:51:03;-0.40;99.90
5850;DHT22;2951;47.712;9.400;2023-03-04T03:53:30;-0.40;99.90
5850;DHT22;2951;47.712;9.400;2023-03-04T03:55:57;-0.40;99.90
5850;DHT22;2951;47.712;9.400;2023-03-04T03:58:24;-0.40;99.90
5850;DHT22;2951;47.712;9.400;2023-03-04T04:00:52;-0.40;99.90
5850;DHT22;2951;47.712;9.400;2023-03-04T04:03:20;-0.40;99.90
5850;DHT22;2951;47.712;9.400;2023-03-04T04:05:46;-0.50;99.90
5850;DHT22;2951;47.712;9.400;2023-03-04T04:08:14;-0.50;99.90
5850;DHT22;2951;47.712;9.400;2023-03-04T04:10:41;-0.40;99.90
5850;DHT22;2951;47.712;9.400;2023-03-04T04:13:07;-0.40;99.90
5850;DHT22;2951;47.712;9.400;2023-03-04T04:15:34;-0.40;99.90
5850;DHT22;2951;47.712;9.400;2023-03-04T04:18:04;-0.40;99.90
5850;DHT22;2951;47.712;9.400;2023-03-04T04:20:31;-0.30;99.90
5850;DHT22;2951;47.712;9.400;2023-03-04T04:22:57;-0.50;99.90
5850;DHT22;2951;47.712;9.400;2023-03-04T04:25:24;-0.50;99.90
5850;DHT22;2951;47.712;9.400;2023-03-04T04:27:50;-0.60;99.90
5850;DHT22;2951;47.712;9.400;2023-03-04T04:30:17;-0.80;99.90
5850;DHT22;2951;47.712;9.400;2023-03-04T04:32:44;-0.90;99.90
5850;DHT22;2951;47.712;9.400;2023-03-04T04:35:11;-0.90;99.90
5850;DHT22;2951;47.712;9.400;2023-03-04T04:37:38;-0.70;99.90
5850;DHT22;2951;47.712;9.400;2023-03-04T04:40:05;-0.70;99.90
5850;DHT22;2951;47.712;9.400;2023-03-04T04:42:32;-0.60;99.90
5850;DHT22;2951;47.712;9.400;2023-03-04T04:44:59;-0.60;99.90
5850;DHT22;2951;47.712;9.400;2023-03-04T04:47:25;-0.60;99.90
5850;DHT22;2951;47.712;9.400;2023-03-04T04:49:52;-0.60;99.90
5850;DHT22;2951;47.712;9.400;2023-03-04T04:52:19;-0.60;99.90
5850;DHT22;2951;47.712;9.400;2023-03-04T04:54:45;-0.60;99.90
5850;DHT22;2951;47.712;9.400;2023-03-04T04:57:12;-0.70;99.90
5850;DHT22;2951;47.712;9.400;2023-03-04T04:59:38;-0.80;99.90
5850;DHT22;2951;47.712;9.400;2023-03-04T05:02:05;-0.80;99.90
5850;DHT22;2951;47.712;9.400;2023-03-04T05:04:32;-0.70;99.90
5850;DHT22;2951;47.712;9.400;2023-03-04T05:06:58;-0.60;99.90
5850;DHT22;2951;47.712;9.400;2023-03-04T05:09:25;-0.60;99.90
5850;DHT22;2951;47.712;9.400;2023-03-04T05:11:51;-0.60;99.90
5850;DHT22;2951;47.712;9.400;2023-03-04T05:14:18;-0.50;99.90
5850;DHT22;2951;47.712;9.400;2023-03-04T05:16:45;-0.40;99.90
5850;DHT22;2951;47.712;9.400;2023-03-04T05:19:11;-0.30;99.90
5850;DHT22;2951;47.712;9.400;2023-03-04T05:21:38;-0.40;99.90
5850;DHT22;2951;47.712;9.400;2023-03-04T05:24:05;-0.40;99.90
5850;DHT22;2951;47.712;9.400;2023-03-04T05:26:31;-0.30;99.90
5850;DHT22;2951;47.712;9.400;2023-03-04T05:28:58;-0.20;99.90
5850;DHT22;2951;47.712;9.400;2023-03-04T05:31:25;-0.10;99.90
5850;DHT22;2951;47.712;9.400;2023-03-04T05:33:52;0.00;99.90
5850;DHT22;2951;47.712;9.400;2023-03-04T05:36:19;0.10;99.90
5850;DHT22;2951;47.712;9.400;2023-03-04T05:38:45;0.20;99.90
5850;DHT22;2951;47.712;9.400;2023-03-04T05:41:12;0.30;99.90
5850;DHT22;2951;47.712;9.400;2023-03-04T05:43:38;0.40;99.90
5850;DHT22;2951;47.712;9.400;2023-03-04T05:46:10;0.40;99.90
5850;DHT22;2951;47.712;9.400;2023-03-04T05:48:39;0.40;99.90
5850;DHT22;2951;47.712;9.400;2023-03-04T05:51:06;0.40;99.90
5850;DHT22;2951;47.712;9.400;2023-03-04T05:53:33;0.50;99.90
5850;DHT22;2951;47.712;9.400;2023-03-04T05:56:06;0.50;99.90
5850;DHT22;2951;47.712;9.400;2023-03-04T05:58:32;0.60;99.90
5850;DHT22;2951;47.712;9.400;2023-03-04T06:00:59;0.70;99.90
5850;DHT22;2951;47.712;9.400;2023-03-04T06:03:26;0.70;99.90
5850;DHT22;2951;47.712;9.400;2023-03-04T06:05:53;0.80;99.90
5850;DHT22;2951;47.712;9.400;2023-03-04T06:08:20;0.80;99.90
5850;DHT22;2951;47.712;9.400;2023-03-04T06:10:46;0.80;99.90
5850;DHT22;2951;47.712;9.400;2023-03-04T06:13:13;0.90;99.90
5850;DHT22;2951;47.712;9.400;2023-03-04T06:15:39;1.00;99.90
5850;DHT22;2951;47.712;9.400;2023-03-04T06:18:06;1.00;99.90
5850;DHT22;2951;47.712;9.400;2023-03-04T06:20:33;1.00;99.90
5850;DHT22;2951;47.712;9.400;2023-03-04T06:22:59;1.10;99.90
5850;DHT22;2951;47.712;9.400;2023-03-04T06:25:26;1.20;99.90
5850;DHT22;2951;47.712;9.400;2023-03-04T06:27:53;1.20;99.90
5850;DHT22;2951;47.712;9.400;2023-03-04T06:30:20;1.20;99.90
5850;DHT22;2951;47.712;9.400;2023-03-04T06:32:47;1.30;99.90
5850;DHT22;2951;47.712;9.400;2023-03-04T06:35:14;1.20;99.90
5850;DHT22;2951;47.712;9.400;2023-03-04T06:37:41;1.30;99.90
5850;DHT22;2951;47.712;9.400;2023-03-04T06:40:08;1.20;99.90
5850;DHT22;2951;47.712;9.400;2023-03-04T06:42:35;1.20;99.90
5850;DHT22;2951;47.712;9.400;2023-03-04T06:45:02;1.30;99.90
5850;DHT22;2951;47.712;9.400;2023-03-04T06:47:29;1.30;99.90
5850;DHT22;2951;47.712;9.400;2023-03-04T06:49:56;1.40;99.90
5850;DHT22;2951;47.712;9.400;2023-03-04T06:52:23;1.40;99.90
5850;DHT22;2951;47.712;9.400;2023-03-04T06:54:49;1.40;99.90
5850;DHT22;2951;47.712;9.400;2023-03-04T06:57:16;1.40;99.90
5850;DHT22;2951;47.712;9.400;2023-03-04T06:59:43;1.50;99.90
5850;DHT22;2951;47.712;9.400;2023-03-04T07:02:10;1.50;99.90
5850;DHT22;2951;47.712;9.400;2023-03-04T07:04:37;1.50;99.90
5850;DHT22;2951;47.712;9.400;2023-03-04T07:07:03;1.60;99.90
5850;DHT22;2951;47.712;9.400;2023-03-04T07:09:30;1.60;99.90
5850;DHT22;2951;47.712;9.400;2023-03-04T07:11:57;1.70;99.90
5850;DHT22;2951;47.712;9.400;2023-03-04T07:14:23;1.70;99.90
5850;DHT22;2951;47.712;9.400;2023-03-04T07:16:51;1.80;99.90
5850;DHT22;2951;47.712;9.400;2023-03-04T07:19:17;1.80;99.90
5850;DHT22;2951;47.712;9.400;2023-03-04T07:21:44;1.90;99.90
5850;DHT22;2951;47.712;9.400;2023-03-04T07:24:12;1.90;99.90
5850;DHT22;2951;47.712;9.400;2023-03-04T07:26:39;2.00;99.90
5850;DHT22;2951;47.712;9.400;2023-03-04T07:29:05;2.10;99.90
5850;DHT22;2951;47.712;9.400;2023-03-04T07:31:33;2.20;99.90
5850;DHT22;2951;47.712;9.400;2023-03-04T07:34:01;2.40;99.90
5850;DHT22;2951;47.712;9.400;2023-03-04T07:36:28;2.40;99.90
5850;DHT22;2951;47.712;9.400;2023-03-04T07:38:55;2.40;99.90
5850;DHT22;2951;47.712;9.400;2023-03-04T07:41:23;2.50;99.90
5850;DHT22;2951;47.712;9.400;2023-03-04T07:43:50;2.40;99.90
5850;DHT22;2951;47.712;9.400;2023-03-04T07:46:17;2.30;99.90
5850;DHT22;2951;47.712;9.400;2023-03-04T07:48:45;2.30;99.90
5850;DHT22;2951;47.712;9.400;2023-03-04T07:51:13;2.30;99.90
5850;DHT22;2951;47.712;9.400;2023-03-04T07:53:44;2.30;99.90
5850;DHT22;2951;47.712;9.400;2023-03-04T07:56:12;2.40;99.90
5850;DHT22;2951;47.712;9.400;2023-03-04T07:58:39;2.50;99.90
5850;DHT22;2951;47.712;9.400;2023-03-04T08:01:10;2.50;99.90
5850;DHT22;2951;47.712;9.400;2023-03-04T08:03:37;2.60;99.90
5850;DHT22;2951;47.712;9.400;2023-03-04T08:06:05;2.60;99.90
5850;DHT22;2951;47.712;9.400;2023-03-04T08:08:32;2.70;99.90
5850;DHT22;2951;47.712;9.400;2023-03-04T08:10:59;2.80;99.90
5850;DHT22;2951;47.712;9.400;2023-03-04T08:13:25;2.70;99.90
5850;DHT22;2951;47.712;9.400;2023-03-04T08:15:54;2.70;99.90
5850;DHT22;2951;47.712;9.400;2023-03-04T08:18:21;2.60;99.90
5850;DHT22;2951;47.712;9.400;2023-03-04T08:20:47;2.40;99.90
5850;DHT22;2951;47.712;9.400;2023-03-04T08:23:14;2.40;99.90
5850;DHT22;2951;47.712;9.400;2023-03-04T08:25:41;2.40;99.90
5850;DHT22;2951;47.712;9.400;2023-03-04T08:28:08;2.60;99.90
5850;DHT22;2951;47.712;9.400;2023-03-04T08:30:35;2.70;99.90
5850;DHT22;2951;47.712;9.400;2023-03-04T08:33:02;2.80;99.90
5850;DHT22;2951;47.712;9.400;2023-03-04T08:35:29;3.10;99.90
5850;DHT22;2951;47.712;9.400;2023-03-04T08:37:56;3.20;99.90
5850;DHT22;2951;47.712;9.400;2023-03-04T08:40:22;3.30;99.90
5850;DHT22;2951;47.712;9.400;2023-03-04T08:42:52;3.50;99.90
5850;DHT22;2951;47.712;9.400;2023-03-04T08:45:18;3.50;99.90
5850;DHT22;2951;47.712;9.400;2023-03-04T08:47:45;3.60;99.90
5850;DHT22;2951;47.712;9.400;2023-03-04T08:50:11;3.80;99.90
5850;DHT22;2951;47.712;9.400;2023-03-04T08:52:38;3.70;99.90
5850;DHT22;2951;47.712;9.400;2023-03-04T08:55:05;3.70;99.90
5850;DHT22;2951;47.712;9.400;2023-03-04T08:57:32;3.80;99.90
5850;DHT22;2951;47.712;9.400;2023-03-04T08:59:58;3.90;99.90
5850;DHT22;2951;47.712;9.400;2023-03-04T09:02:25;3.80;99.90
5850;DHT22;2951;47.712;9.400;2023-03-04T09:04:52;3.70;99.90
5850;DHT22;2951;47.712;9.400;2023-03-04T09:07:18;3.70;99.90
5850;DHT22;2951;47.712;9.400;2023-03-04T09:09:45;3.80;99.90
5850;DHT22;2951;47.712;9.400;2023-03-04T09:12:11;4.00;99.90
5850;DHT22;2951;47.712;9.400;2023-03-04T09:14:38;4.00;99.90
5850;DHT22;2951;47.712;9.400;2023-03-04T09:17:05;3.80;99.90
5850;DHT22;2951;47.712;9.400;2023-03-04T09:19:32;3.70;99.90
5850;DHT22;2951;47.712;9.400;2023-03-04T09:21:59;3.50;99.90
5850;DHT22;2951;47.712;9.400;2023-03-04T09:24:25;3.60;99.90
5850;DHT22;2951;47.712;9.400;2023-03-04T09:26:52;3.70;99.90
5850;DHT22;2951;47.712;9.400;2023-03-04T09:29:19;3.80;99.90
5850;DHT22;2951;47.712;9.400;2023-03-04T09:31:46;3.70;99.90
5850;DHT22;2951;47.712;9.400;2023-03-04T09:34:12;3.80;99.90
5850;DHT22;2951;47.712;9.400;2023-03-04T09:36:39;3.70;99.90
5850;DHT22;2951;47.712;9.400;2023-03-04T09:39:06;3.90;99.90
5850;DHT22;2951;47.712;9.400;2023-03-04T09:41:45;4.10;99.90
5850;DHT22;2951;47.712;9.400;2023-03-04T09:44:14;3.70;99.90
5850;DHT22;2951;47.712;9.400;2023-03-04T09:46:42;3.50;99.90
5850;DHT22;2951;47.712;9.400;2023-03-04T09:49:10;3.70;99.90
5850;DHT22;2951;47.712;9.400;2023-03-04T09:51:46;3.70;99.90
5850;DHT22;2951;47.712;9.400;2023-03-04T09:54:29;3.80;99.90
5850;DHT22;2951;47.712;9.400;2023-03-04T09:57:14;3.80;99.90
5850;DHT22;2951;47.712;9.400;2023-03-04T10:02:34;4.00;99.90
5850;DHT22;2951;47.712;9.400;2023-03-04T10:05:05;4.00;99.90
5850;DHT22;2951;47.712;9.400;2023-03-04T10:07:34;4.20;99.90
5850;DHT22;2951;47.712;9.400;2023-03-04T10:10:03;4.40;99.90
5850;DHT22;2951;47.712;9.400;2023-03-04T10:12:33;4.40;99.90
5850;DHT22;2951;47.712;9.400;2023-03-04T10:15:03;4.60;99.90
5850;DHT22;2951;47.712;9.400;2023-03-04T10:17:39;4.70;99.90
5850;DHT22;2951;47.712;9.400;2023-03-04T10:20:11;4.90;99.90
5850;DHT22;2951;47.712;9.400;2023-03-04T10:22:44;5.00;99.90
5850;DHT22;2951;47.712;9.400;2023-03-04T10:27:40;4.90;99.90
5850;DHT22;2951;47.712;9.400;2023-03-04T10:32:46;5.00;99.90
5850;DHT22;2951;47.712;9.400;2023-03-04T10:35:22;4.80;99.90
5850;DHT22;2951;47.712;9.400;2023-03-04T10:37:51;4.90;99.90
5850;DHT22;2951;47.712;9.400;2023-03-04T10:40:19;5.10;99.90
5850;DHT22;2951;47.712;9.400;2023-03-04T10:42:49;5.10;99.90
5850;DHT22;2951;47.712;9.400;2023-03-04T10:45:21;5.40;99.90
5850;DHT22;2951;47.712;9.400;2023-03-04T10:47:51;5.30;99.90
5850;DHT22;2951;47.712;9.400;2023-03-04T10:50:23;5.40;99.90
5850;DHT22;2951;47.712;9.400;2023-03-04T10:52:50;5.50;99.90
5850;DHT22;2951;47.712;9.400;2023-03-04T10:55:19;5.40;99.90
5850;DHT22;2951;47.712;9.400;2023-03-04T10:57:48;5.30;99.90
5850;DHT22;2951;47.712;9.400;2023-03-04T11:02:43;5.40;99.90
5850;DHT22;2951;47.712;9.400;2023-03-04T11:05:19;5.30;99.90
5850;DHT22;2951;47.712;9.400;2023-03-04T11:10:22;5.30;99.90
5850;DHT22;2951;47.712;9.400;2023-03-04T11:12:50;5.40;99.90
5850;DHT22;2951;47.712;9.400;2023-03-04T11:15:19;5.30;99.90
5850;DHT22;2951;47.712;9.400;2023-03-04T11:17:47;5.50;99.90
5850;DHT22;2951;47.712;9.400;2023-03-04T11:22:48;5.70;99.90
5850;DHT22;2951;47.712;9.400;2023-03-04T11:25:26;5.70;99.90
5850;DHT22;2951;47.712;9.400;2023-03-04T11:28:05;5.50;99.90
5850;DHT22;2951;47.712;9.400;2023-03-04T11:30:49;5.80;99.90
5850;DHT22;2951;47.712;9.400;2023-03-04T11:38:46;6.00;99.90
5850;DHT22;2951;47.712;9.400;2023-03-04T11:41:15;6.10;99.90
5850;DHT22;2951;47.712;9.400;2023-03-04T11:43:45;6.10;99.90
5850;DHT22;2951;47.712;9.400;2023-03-04T11:57:05;6.50;99.90
5850;DHT22;2951;47.712;9.400;2023-03-04T12:02:16;6.60;99.90
5850;DHT22;2951;47.712;9.400;2023-03-04T12:07:19;6.70;99.90
5850;DHT22;2951;47.712;9.400;2023-03-04T12:14:59;7.10;99.90
5850;DHT22;2951;47.712;9.400;2023-03-04T12:35:41;8.20;99.90
5850;DHT22;2951;47.712;9.400;2023-03-04T12:41:05;8.30;99.90
5850;DHT22;2951;47.712;9.400;2023-03-04T12:43:40;8.10;99.90
5850;DHT22;2951;47.712;9.400;2023-03-04T12:46:16;8.30;99.90
5850;DHT22;2951;47.712;9.400;2023-03-04T12:51:31;8.50;99.90
5850;DHT22;2951;47.712;9.400;2023-03-04T12:54:23;8.60;99.90
5850;DHT22;2951;47.712;9.400;2023-03-04T12:59:18;8.90;99.90
5850;DHT22;2951;47.712;9.400;2023-03-04T13:04:51;9.20;99.90
5850;DHT22;2951;47.712;9.400;2023-03-04T13:07:20;9.40;99.90
5850;DHT22;2951;47.712;9.400;2023-03-04T13:09:53;9.40;99.90
5850;DHT22;2951;47.712;9.400;2023-03-04T13:12:21;9.50;99.90
5850;DHT22;2951;47.712;9.400;2023-03-04T13:17:43;9.40;99.90
5850;DHT22;2951;47.712;9.400;2023-03-04T13:23:33;9.40;99.90
5850;DHT22;2951;47.712;9.400;2023-03-04T13:25:40;9.10;99.90
5850;DHT22;2951;47.712;9.400;2023-03-04T13:38:30;9.20;99.90
5850;DHT22;2951;47.712;9.400;2023-03-04T13:43:39;9.50;99.90
5850;DHT22;2951;47.712;9.400;2023-03-04T13:51:45;9.10;99.90
5850;DHT22;2951;47.712;9.400;2023-03-04T13:54:13;9.20;99.90
5850;DHT22;2951;47.712;9.400;2023-03-04T13:56:44;9.30;99.90
5850;DHT22;2951;47.712;9.400;2023-03-04T14:04:30;9.40;99.90
5850;DHT22;2951;47.712;9.400;2023-03-04T14:06:56;9.80;99.90
5850;DHT22;2951;47.712;9.400;2023-03-04T14:09:24;9.60;99.90
5850;DHT22;2951;47.712;9.400;2023-03-04T14:11:53;9.70;99.90
5850;DHT22;2951;47.712;9.400;2023-03-04T14:15:05;9.90;99.90
5850;DHT22;2951;47.712;9.400;2023-03-04T14:17:14;10.10;99.90
5850;DHT22;2951;47.712;9.400;2023-03-04T14:19:43;10.20;99.90
5850;DHT22;2951;47.712;9.400;2023-03-04T14:27:23;10.90;99.90
5850;DHT22;2951;47.712;9.400;2023-03-04T14:29:59;11.30;99.90
5850;DHT22;2951;47.712;9.400;2023-03-04T14:32:26;11.40;99.90
5850;DHT22;2951;47.712;9.400;2023-03-04T14:34:56;11.40;99.90
5850;DHT22;2951;47.712;9.400;2023-03-04T14:37:25;11.80;99.90
5850;DHT22;2951;47.712;9.400;2023-03-04T14:39:56;12.10;99.90
5850;DHT22;2951;47.712;9.400;2023-03-04T14:42:24;12.20;99.90
5850;DHT22;2951;47.712;9.400;2023-03-04T14:44:52;12.60;99.90
5850;DHT22;2951;47.712;9.400;2023-03-04T14:49:53;12.50;99.90
5850;DHT22;2951;47.712;9.400;2023-03-04T14:55:00;12.10;99.90
5850;DHT22;2951;47.712;9.400;2023-03-04T14:57:28;12.00;99.90
5850;DHT22;2951;47.712;9.400;2023-03-04T15:00:12;12.30;99.90
5850;DHT22;2951;47.712;9.400;2023-03-04T15:02:39;12.30;99.90
5850;DHT22;2951;47.712;9.400;2023-03-04T15:05:16;12.30;99.90
5850;DHT22;2951;47.712;9.400;2023-03-04T15:07:52;12.50;99.90
5850;DHT22;2951;47.712;9.400;2023-03-04T15:10:21;12.50;99.90
5850;DHT22;2951;47.712;9.400;2023-03-04T15:12:52;12.60;99.90
5850;DHT22;2951;47.712;9.400;2023-03-04T15:17:56;12.30;99.90
5850;DHT22;2951;47.712;9.400;2023-03-04T15:20:26;12.00;99.90
5850;DHT22;2951;47.712;9.400;2023-03-04T15:22:58;12.00;99.90
5850;DHT22;2951;47.712;9.400;2023-03-04T15:25:25;12.40;99.90
5850;DHT22;2951;47.712;9.400;2023-03-04T15:27:52;12.60;99.90
5850;DHT22;2951;47.712;9.400;2023-03-04T15:30:27;12.70;99.90
5850;DHT22;2951;47.712;9.400;2023-03-04T15:32:54;12.90;99.90
5850;DHT22;2951;47.712;9.400;2023-03-04T15:35:22;12.40;99.90
5850;DHT22;2951;47.712;9.400;2023-03-04T15:37:49;12.50;99.90
5850;DHT22;2951;47.712;9.400;2023-03-04T15:40:25;12.30;99.90
5850;DHT22;2951;47.712;9.400;2023-03-04T15:42:52;12.20;99.90
5850;DHT22;2951;47.712;9.400;2023-03-04T15:45:53;12.00;99.90
5850;DHT22;2951;47.712;9.400;2023-03-04T15:48:13;11.70;99.90
5850;DHT22;2951;47.712;9.400;2023-03-04T15:50:42;12.10;99.90
5850;DHT22;2951;47.712;9.400;2023-03-04T15:53:14;11.90;99.90
5850;DHT22;2951;47.712;9.400;2023-03-04T15:55:44;11.50;99.90
5850;DHT22;2951;47.712;9.400;2023-03-04T15:58:11;10.90;99.90
5850;DHT22;2951;47.712;9.400;2023-03-04T16:00:38;10.80;99.90
5850;DHT22;2951;47.712;9.400;2023-03-04T16:03:04;10.50;99.90
5850;DHT22;2951;47.712;9.400;2023-03-04T16:05:32;10.40;99.90
5850;DHT22;2951;47.712;9.400;2023-03-04T16:08:01;10.70;99.90
5850;DHT22;2951;47.712;9.400;2023-03-04T16:10:28;10.60;99.90
5850;DHT22;2951;47.712;9.400;2023-03-04T16:12:58;10.60;99.90
5850;DHT22;2951;47.712;9.400;2023-03-04T16:15:26;10.70;99.90
5850;DHT22;2951;47.712;9.400;2023-03-04T16:17:53;10.80;99.90
5850;DHT22;2951;47.712;9.400;2023-03-04T16:20:24;10.50;99.90
5850;DHT22;2951;47.712;9.400;2023-03-04T16:22:52;10.30;99.90
5850;DHT22;2951;47.712;9.400;2023-03-04T16:25:19;10.00;99.90
5850;DHT22;2951;47.712;9.400;2023-03-04T16:27:48;9.70;99.90
5850;DHT22;2951;47.712;9.400;2023-03-04T16:30:17;9.60;99.90
5850;DHT22;2951;47.712;9.400;2023-03-04T16:32:44;9.30;99.90
5850;DHT22;2951;47.712;9.400;2023-03-04T16:35:11;9.20;99.90
5850;DHT22;2951;47.712;9.400;2023-03-04T16:37:38;9.10;99.90
5850;DHT22;2951;47.712;9.400;2023-03-04T16:40:05;9.10;99.90
5850;DHT22;2951;47.712;9.400;2023-03-04T16:42:32;9.00;99.90
5850;DHT22;2951;47.712;9.400;2023-03-04T16:44:59;9.00;99.90
5850;DHT22;2951;47.712;9.400;2023-03-04T16:47:26;8.90;99.90
5850;DHT22;2951;47.712;9.400;2023-03-04T16:49:53;8.90;99.90
5850;DHT22;2951;47.712;9.400;2023-03-04T16:54:50;8.80;99.90
5850;DHT22;2951;47.712;9.400;2023-03-04T16:57:16;8.70;99.90
5850;DHT22;2951;47.712;9.400;2023-03-04T16:59:43;8.70;99.90
5850;DHT22;2951;47.712;9.400;2023-03-04T17:02:18;8.60;99.90
5850;DHT22;2951;47.712;9.400;2023-03-04T17:04:46;8.60;99.90
5850;DHT22;2951;47.712;9.400;2023-03-04T17:07:13;8.60;99.90
5850;DHT22;2951;47.712;9.400;2023-03-04T17:09:40;8.50;99.90
5850;DHT22;2951;47.712;9.400;2023-03-04T17:12:08;8.40;99.90
5850;DHT22;2951;47.712;9.400;2023-03-04T17:14:35;8.30;99.90
5850;DHT22;2951;47.712;9.400;2023-03-04T17:17:02;8.10;99.90
5850;DHT22;2951;47.712;9.400;2023-03-04T17:19:29;7.90;99.90
5850;DHT22;2951;47.712;9.400;2023-03-04T17:21:56;7.90;99.90
5850;DHT22;2951;47.712;9.400;2023-03-04T17:24:23;7.70;99.90
5850;DHT22;2951;47.712;9.400;2023-03-04T17:26:50;7.60;99.90
5850;DHT22;2951;47.712;9.400;2023-03-04T17:29:17;7.50;99.90
5850;DHT22;2951;47.712;9.400;2023-03-04T17:31:43;7.40;99.90
5850;DHT22;2951;47.712;9.400;2023-03-04T17:34:10;7.20;99.90
5850;DHT22;2951;47.712;9.400;2023-03-04T17:36:38;7.20;99.90
5850;DHT22;2951;47.712;9.400;2023-03-04T17:39:05;7.00;99.90
5850;DHT22;2951;47.712;9.400;2023-03-04T17:41:32;6.90;99.90
5850;DHT22;2951;47.712;9.400;2023-03-04T17:44:01;6.80;99.90
5850;DHT22;2951;47.712;9.400;2023-03-04T17:46:28;6.70;99.90
5850;DHT22;2951;47.712;9.400;2023-03-04T17:48:56;6.60;99.90
5850;DHT22;2951;47.712;9.400;2023-03-04T17:51:31;6.60;99.90
5850;DHT22;2951;47.712;9.400;2023-03-04T17:53:58;6.50;99.90
5850;DHT22;2951;47.712;9.400;2023-03-04T17:56:27;6.40;99.90
5850;DHT22;2951;47.712;9.400;2023-03-04T17:58:59;6.20;99.90
5850;DHT22;2951;47.712;9.400;2023-03-04T18:01:27;6.20;99.90
5850;DHT22;2951;47.712;9.400;2023-03-04T18:03:53;6.10;99.90
5850;DHT22;2951;47.712;9.400;2023-03-04T18:06:20;6.00;99.90
5850;DHT22;2951;47.712;9.400;2023-03-04T18:08:52;5.90;99.90
5850;DHT22;2951;47.712;9.400;2023-03-04T18:11:23;5.80;99.90
5850;DHT22;2951;47.712;9.400;2023-03-04T18:13:50;5.60;99.90
5850;DHT22;2951;47.712;9.400;2023-03-04T18:16:17;5.50;99.90
5850;DHT22;2951;47.712;9.400;2023-03-04T18:18:49;5.40;99.90